createdAt,value
2019-02-09T00:04:08.891Z,8.47
2019-02-09T00:09:01.685Z,16.47
2019-02-09T00:13:54.244Z,6.77
2019-02-09T00:18:46.744Z,9.63
2019-02-09T00:23:39.037Z,9.33
2019-02-09T00:28:31.802Z,10.67
2019-02-09T00:33:24.574Z,9.70
2019-02-09T00:38:17.077Z,8.13
2019-02-09T00:43:09.797Z,11.67
2019-02-09T00:48:02.645Z,13.13
2019-02-09T00:52:55.065Z,9.80
2019-02-09T00:57:47.493Z,9.33
2019-02-09T01:02:40.087Z,10.30
2019-02-09T01:07:32.938Z,6.27
2019-02-09T01:12:25.638Z,9.07
2019-02-09T01:17:18.142Z,8.30
2019-02-09T01:22:10.808Z,13.70
2019-02-09T01:27:03.182Z,10.93
2019-02-09T01:31:55.797Z,10.03
2019-02-09T01:36:48.553Z,14.87
2019-02-09T01:41:41.372Z,5.40
2019-02-09T01:46:33.956Z,6.93
2019-02-09T01:51:26.554Z,10.10
2019-02-09T01:56:19.056Z,7.43
2019-02-09T02:01:11.446Z,4.90
2019-02-09T02:06:04.169Z,7.20
2019-02-09T02:10:56.889Z,6.37
2019-02-09T02:15:49.723Z,13.20
2019-02-09T02:20:42.068Z,7.80
2019-02-09T02:25:34.769Z,5.93
2019-02-09T02:30:29.915Z,7.80
2019-02-09T02:35:22.412Z,6.90
2019-02-09T02:40:17.169Z,6.87
2019-02-09T02:45:18.026Z,10.07
2019-02-09T02:50:13.616Z,8.83
2019-02-09T02:55:09.597Z,7.83
2019-02-09T03:00:01.989Z,10.60
2019-02-09T03:04:54.579Z,7.97
2019-02-09T03:09:46.974Z,12.17
2019-02-09T03:14:39.509Z,12.37
2019-02-09T03:19:31.780Z,8.07
2019-02-09T03:24:24.398Z,8.47
2019-02-09T03:29:17.226Z,8.97
2019-02-09T03:34:09.909Z,9.93
2019-02-09T03:39:02.334Z,11.10
2019-02-09T03:43:54.713Z,8.83
2019-02-09T03:48:47.380Z,11.73
2019-02-09T03:53:40.006Z,11.33
2019-02-09T03:58:32.543Z,18.27
2019-02-09T04:03:25.591Z,10.77
2019-02-09T04:08:17.934Z,8.43
2019-02-09T04:13:10.354Z,11.27
2019-02-09T04:18:02.912Z,10.43
2019-02-09T04:22:55.571Z,9.37
2019-02-09T04:27:48.301Z,6.70
2019-02-09T04:32:40.869Z,4.53
2019-02-09T04:37:33.265Z,10.47
2019-02-09T04:42:25.898Z,12.83
2019-02-09T04:47:18.382Z,6.57
2019-02-09T04:52:11.115Z,8.30
2019-02-09T04:57:03.725Z,10.20
2019-02-09T05:01:56.272Z,10.50
2019-02-09T05:06:48.542Z,7.43
2019-02-09T05:11:40.941Z,3.23
2019-02-09T05:16:33.725Z,4.97
2019-02-09T05:21:25.959Z,8.30
2019-02-09T05:26:18.289Z,6.13
2019-02-09T05:31:11.060Z,11.63
2019-02-09T05:36:03.958Z,14.23
2019-02-09T05:40:56.545Z,9.40
2019-02-09T05:45:48.705Z,12.33
2019-02-09T05:50:41.281Z,14.50
2019-02-09T05:55:33.633Z,12.57
2019-02-09T06:00:33.172Z,17.70
2019-02-09T06:05:27.168Z,10.80
2019-02-09T06:10:20.499Z,20.57
2019-02-09T06:15:28.967Z,18.37
2019-02-09T06:20:26.816Z,17.50
2019-02-09T06:25:18.954Z,13.73
2019-02-09T06:30:14.525Z,9.17
2019-02-09T06:35:09.395Z,12.23
2019-02-09T06:40:01.783Z,12.27
2019-02-09T06:44:54.023Z,9.40
2019-02-09T06:49:46.492Z,12.47
2019-02-09T06:54:39.122Z,11.83
2019-02-09T06:59:31.733Z,11.23
2019-02-09T07:04:24.541Z,11.07
2019-02-09T07:09:17.368Z,10.83
2019-02-09T07:14:10.136Z,10.90
2019-02-09T07:19:02.633Z,16.80
2019-02-09T07:23:55.092Z,22.40
2019-02-09T07:28:47.989Z,30.20
2019-02-09T07:33:40.499Z,18.33
2019-02-09T07:38:33.018Z,18.67
2019-02-09T07:43:25.564Z,13.47
2019-02-09T07:48:17.942Z,12.47
2019-02-09T07:53:10.339Z,11.83
2019-02-09T07:58:03.126Z,12.07
2019-02-09T08:02:56.205Z,13.60
2019-02-09T08:07:48.853Z,10.07
2019-02-09T08:12:41.645Z,9.77
2019-02-09T08:17:34.530Z,10.13
2019-02-09T08:22:27.130Z,12.50
2019-02-09T08:27:23.644Z,8.93
2019-02-09T08:32:13.409Z,10.18
2019-02-09T08:37:06.017Z,10.25
2019-02-09T08:41:58.756Z,10.98
2019-02-09T08:46:51.222Z,11.50
2019-02-09T08:51:43.848Z,6.85
2019-02-09T08:56:36.597Z,9.35
2019-02-09T09:01:29.001Z,12.20
2019-02-09T09:06:21.513Z,9.18
2019-02-09T09:11:14.052Z,12.10
2019-02-09T09:16:08.532Z,7.70
2019-02-09T09:21:04.058Z,10.28
2019-02-09T09:25:56.355Z,12.20
2019-02-09T09:30:48.737Z,14.83
2019-02-09T09:35:41.573Z,18.37
2019-02-09T09:40:37.342Z,18.73
2019-02-09T09:45:35.343Z,12.95
2019-02-09T09:50:29.428Z,25.25
2019-02-09T09:55:22.625Z,18.55
2019-02-09T10:00:17.414Z,20.00
2019-02-09T10:05:10.186Z,22.55
2019-02-09T10:10:23.933Z,31.52
2019-02-09T10:15:21.710Z,22.65
2019-02-09T10:20:19.510Z,29.82
2019-02-09T10:25:13.652Z,27.30
2019-02-09T10:30:18.557Z,17.02
2019-02-09T10:35:13.637Z,18.67
2019-02-09T10:40:09.833Z,12.73
2019-02-09T10:45:03.733Z,15.85
2019-02-09T10:49:56.115Z,11.97
2019-02-09T10:54:48.692Z,14.00
2019-02-09T10:59:41.334Z,9.10
2019-02-09T11:04:34.020Z,9.95
2019-02-09T11:09:26.868Z,11.03
2019-02-09T11:14:19.402Z,12.45
2019-02-09T11:19:12.008Z,15.95
2019-02-09T11:24:04.754Z,9.20
2019-02-09T11:28:57.061Z,10.38
2019-02-09T11:33:49.324Z,12.03
2019-02-09T11:38:41.787Z,11.50
2019-02-09T11:43:34.349Z,10.43
2019-02-09T11:48:27.167Z,10.68
2019-02-09T11:53:19.582Z,14.18
2019-02-09T11:58:12.056Z,12.43
2019-02-09T12:03:14.823Z,12.68
2019-02-09T12:07:59.821Z,13.10
2019-02-09T12:12:52.613Z,20.55
2019-02-09T12:17:45.117Z,8.68
2019-02-09T12:22:37.842Z,12.58
2019-02-09T12:27:30.783Z,15.68
2019-02-09T12:32:23.489Z,16.17
2019-02-09T12:37:16.049Z,12.75
2019-02-09T12:42:08.570Z,19.02
2019-02-09T12:47:01.330Z,17.10
2019-02-09T12:51:53.841Z,16.60
2019-02-09T12:56:46.749Z,14.23
2019-02-09T13:01:39.452Z,14.50
2019-02-09T13:06:32.189Z,9.63
2019-02-09T13:11:37.196Z,11.40
2019-02-09T13:16:30.324Z,12.78
2019-02-09T13:21:22.792Z,12.68
2019-02-09T13:26:15.533Z,11.50
2019-02-09T13:31:08.764Z,12.58
2019-02-09T13:36:01.152Z,12.33
2019-02-09T13:40:53.760Z,11.83
2019-02-09T13:45:49.140Z,11.45
2019-02-09T13:50:41.981Z,10.93
2019-02-09T13:55:34.600Z,12.85
2019-02-09T14:00:28.757Z,8.10
2019-02-09T14:05:21.161Z,10.23
2019-02-09T14:10:18.569Z,14.90
2019-02-09T14:15:14.570Z,24.20
2019-02-09T14:20:09.469Z,15.05
2019-02-09T14:25:01.709Z,13.28
2019-02-09T14:30:02.322Z,12.28
2019-02-09T14:34:55.184Z,10.85
2019-02-09T14:39:48.054Z,14.50
2019-02-09T14:44:40.932Z,9.30
2019-02-09T14:49:33.426Z,9.65
2019-02-09T14:54:26.457Z,10.55
2019-02-09T14:59:19.069Z,14.05
2019-02-09T15:04:11.789Z,11.78
2019-02-09T15:09:06.768Z,12.55
2019-02-09T15:13:59.341Z,10.60
2019-02-09T15:18:51.723Z,12.90
2019-02-09T15:23:44.472Z,27.05
2019-02-09T15:28:37.601Z,11.50
2019-02-09T15:33:32.071Z,22.30
2019-02-09T15:38:24.379Z,27.65
2019-02-09T15:43:17.178Z,14.98
2019-02-09T15:48:15.033Z,11.80
2019-02-09T15:53:08.988Z,9.48
2019-02-09T15:58:01.527Z,9.68
2019-02-09T16:02:55.654Z,10.13
2019-02-09T16:07:48.894Z,10.65
2019-02-09T16:12:41.288Z,11.38
2019-02-09T16:17:33.889Z,8.13
2019-02-09T16:22:27.946Z,11.40
2019-02-09T16:27:20.988Z,10.45
2019-02-09T16:32:15.503Z,12.83
2019-02-09T16:37:08.201Z,13.30
2019-02-09T16:42:00.856Z,8.50
2019-02-09T16:46:53.329Z,11.15
2019-02-09T16:51:45.964Z,6.85
2019-02-09T16:56:38.289Z,10.93
2019-02-09T17:01:51.766Z,11.90
2019-02-09T17:06:44.514Z,12.83
2019-02-09T17:11:37.966Z,15.37
2019-02-09T17:21:29.879Z,9.15
2019-02-09T17:26:25.304Z,13.23
2019-02-09T17:31:17.717Z,14.53
2019-02-09T17:36:10.392Z,13.20
2019-02-09T17:41:02.875Z,13.23
2019-02-09T17:46:14.762Z,15.70
2019-02-09T17:51:07.345Z,16.30
2019-02-09T17:55:59.874Z,14.10
2019-02-09T18:00:54.001Z,13.50
2019-02-09T18:05:49.411Z,15.67
2019-02-09T18:10:43.691Z,8.83
2019-02-09T18:15:37.450Z,12.73
2019-02-09T18:20:30.193Z,16.67
2019-02-09T18:25:23.481Z,17.20
2019-02-09T18:30:30.523Z,14.00
2019-02-09T18:35:23.211Z,20.13
2019-02-09T18:40:24.881Z,22.30
2019-02-09T18:45:19.908Z,11.77
2019-02-09T18:50:17.853Z,18.13
2019-02-09T18:55:16.098Z,15.77
2019-02-09T19:00:11.402Z,15.67
2019-02-09T19:05:05.534Z,15.97
2019-02-09T19:09:58.016Z,17.13
2019-02-09T19:14:50.948Z,14.07
2019-02-09T19:19:43.534Z,17.53
2019-02-09T19:24:36.362Z,18.17
2019-02-09T19:29:28.833Z,11.43
2019-02-09T19:34:21.494Z,15.47
2019-02-09T19:39:14.286Z,13.47
2019-02-09T19:44:07.333Z,15.97
2019-02-09T19:48:59.387Z,11.30
2019-02-09T19:53:52.050Z,12.23
2019-02-09T19:58:44.473Z,9.63
2019-02-09T20:03:37.153Z,12.03
2019-02-09T20:08:29.645Z,10.57
2019-02-09T20:13:22.106Z,10.77
2019-02-09T20:18:14.646Z,10.70
2019-02-09T20:23:07.248Z,14.10
2019-02-09T20:27:59.818Z,13.43
2019-02-09T20:32:52.578Z,11.20
2019-02-09T20:37:45.185Z,9.80
2019-02-09T20:42:37.601Z,12.43
2019-02-09T20:47:30.436Z,15.17
2019-02-09T20:52:22.868Z,10.87
2019-02-09T20:57:15.479Z,12.03
2019-02-09T21:02:07.826Z,15.70
2019-02-09T21:07:00.465Z,16.73
2019-02-09T21:11:52.845Z,14.27
2019-02-09T21:16:51.609Z,15.53
2019-02-09T21:21:40.031Z,19.07
2019-02-09T21:26:32.117Z,26.77
2019-02-09T21:31:24.710Z,14.73
2019-02-09T21:36:17.341Z,19.07
2019-02-09T21:41:10.350Z,15.47
2019-02-09T21:46:02.862Z,10.33
2019-02-09T21:50:55.407Z,15.30
2019-02-09T21:55:47.906Z,19.07
2019-02-09T22:00:45.499Z,11.13
2019-02-09T22:05:37.977Z,12.60
2019-02-09T22:10:34.045Z,20.60
2019-02-09T22:15:38.067Z,13.83
2019-02-09T22:20:25.855Z,12.40
2019-02-09T22:25:31.048Z,14.13
2019-02-09T22:30:28.524Z,16.27
2019-02-09T22:35:21.327Z,19.73
2019-02-09T22:40:22.349Z,17.70
2019-02-09T22:45:18.005Z,18.03
2019-02-09T22:50:25.731Z,21.87
2019-02-09T22:55:20.349Z,23.93
2019-02-09T23:00:33.045Z,26.90
2019-02-09T23:05:45.485Z,31.53
2019-02-09T23:10:38.269Z,23.80
2019-02-09T23:15:31.157Z,26.60
2019-02-09T23:20:23.745Z,21.33
2019-02-09T23:25:16.678Z,16.00
2019-02-09T23:30:10.976Z,16.57
2019-02-09T23:35:03.879Z,17.57
2019-02-09T23:39:56.551Z,16.37
2019-02-09T23:44:49.068Z,14.03
2019-02-09T23:49:41.470Z,11.27
2019-02-09T23:54:34.026Z,14.60
2019-02-09T23:59:26.910Z,14.80
